sensor_id;sensor_type;location;lat;lon;timestamp;pressure;altitude;pressure_sealevel;temperature;humidity
8890;BME280;4481;43.406;24.454;2022-12-20T00:01:19;80875.50;;;-144.09;100.00
8890;BME280;4481;43.406;24.454;2022-12-20T00:03:47;80867.13;;;-144.09;100.00
8890;BME280;4481;43.406;24.454;2022-12-20T00:06:14;80867.13;;;-144.09;100.00
8890;BME280;4481;43.406;24.454;2022-12-20T00:08:40;80936.16;;;-144.09;100.00
8890;BME280;4481;43.406;24.454;2022-12-20T00:11:08;80942.44;;;-144.09;100.00
8890;BME280;4481;43.406;24.454;2022-12-20T00:13:35;80952.91;;;-144.09;100.00
8890;BME280;4481;43.406;24.454;2022-12-20T00:16:05;80980.09;;;-144.09;100.00
8890;BME280;4481;43.406;24.454;2022-12-20T00:18:32;80978.03;;;-144.09;100.00
8890;BME280;4481;43.406;24.454;2022-12-20T00:20:58;80948.72;;;-144.09;100.00
8890;BME280;4481;43.406;24.454;2022-12-20T00:23:24;80934.06;;;-144.09;100.00
8890;BME280;4481;43.406;24.454;2022-12-20T00:25:50;80923.63;;;-144.09;100.00
8890;BME280;4481;43.406;24.454;2022-12-20T00:28:17;80919.44;;;-144.09;100.00
8890;BME280;4481;43.406;24.454;2022-12-20T00:30:43;80950.81;;;-144.09;100.00
8890;BME280;4481;43.406;24.454;2022-12-20T00:33:09;80948.72;;;-144.09;100.00
8890;BME280;4481;43.406;24.454;2022-12-20T00:35:41;80950.81;;;-144.09;100.00
8890;BME280;4481;43.406;24.454;2022-12-20T00:38:07;80952.91;;;-144.09;100.00
8890;BME280;4481;43.406;24.454;2022-12-20T00:40:33;80923.63;;;-144.09;100.00
8890;BME280;4481;43.406;24.454;2022-12-20T00:42:59;80917.34;;;-144.09;100.00
8890;BME280;4481;43.406;24.454;2022-12-20T00:45:26;80921.53;;;-144.09;100.00
8890;BME280;4481;43.406;24.454;2022-12-20T00:47:52;80932.00;;;-144.09;100.00
8890;BME280;4481;43.406;24.454;2022-12-20T00:50:18;80925.72;;;-144.09;100.00
8890;BME280;4481;43.406;24.454;2022-12-20T00:52:44;80900.59;;;-144.09;100.00
8890;BME280;4481;43.406;24.454;2022-12-20T00:55:10;80919.44;;;-144.09;100.00
8890;BME280;4481;43.406;24.454;2022-12-20T00:57:36;80904.78;;;-144.09;100.00
8890;BME280;4481;43.406;24.454;2022-12-20T01:00:03;80904.78;;;-144.09;100.00
8890;BME280;4481;43.406;24.454;2022-12-20T01:02:30;80938.25;;;-144.09;100.00
8890;BME280;4481;43.406;24.454;2022-12-20T01:04:56;80948.72;;;-144.09;100.00
8890;BME280;4481;43.406;24.454;2022-12-20T01:07:22;80936.16;;;-144.09;100.00
8890;BME280;4481;43.406;24.454;2022-12-20T01:09:49;80923.63;;;-144.09;100.00
8890;BME280;4481;43.406;24.454;2022-12-20T01:12:15;80942.44;;;-144.09;100.00
8890;BME280;4481;43.406;24.454;2022-12-20T01:14:41;80948.72;;;-144.09;100.00
8890;BME280;4481;43.406;24.454;2022-12-20T01:17:07;80927.81;;;-144.09;100.00
8890;BME280;4481;43.406;24.454;2022-12-20T01:19:34;80929.91;;;-144.09;100.00
8890;BME280;4481;43.406;24.454;2022-12-20T01:22:00;80917.34;;;-144.09;100.00
8890;BME280;4481;43.406;24.454;2022-12-20T01:24:26;80923.63;;;-144.09;100.00
8890;BME280;4481;43.406;24.454;2022-12-20T01:26:53;80904.78;;;-144.09;100.00
8890;BME280;4481;43.406;24.454;2022-12-20T01:29:19;80888.06;;;-144.09;100.00
8890;BME280;4481;43.406;24.454;2022-12-20T01:31:46;80873.41;;;-144.09;100.00
8890;BME280;4481;43.406;24.454;2022-12-20T01:34:12;80852.47;;;-144.09;100.00
8890;BME280;4481;43.406;24.454;2022-12-20T01:36:38;80844.13;;;-144.09;100.00
8890;BME280;4481;43.406;24.454;2022-12-20T01:39:07;80873.41;;;-144.09;100.00
8890;BME280;4481;43.406;24.454;2022-12-20T01:41:35;80877.59;;;-144.09;100.00
8890;BME280;4481;43.406;24.454;2022-12-20T01:44:03;80881.78;;;-144.09;100.00
8890;BME280;4481;43.406;24.454;2022-12-20T01:46:31;80879.69;;;-144.09;100.00
8890;BME280;4481;43.406;24.454;2022-12-20T01:49:02;80929.91;;;-144.09;100.00
8890;BME280;4481;43.406;24.454;2022-12-20T01:51:33;80965.47;;;-144.09;100.00
8890;BME280;4481;43.406;24.454;2022-12-20T01:54:07;80973.84;;;-144.09;100.00
8890;BME280;4481;43.406;24.454;2022-12-20T01:56:36;80967.56;;;-144.09;100.00
8890;BME280;4481;43.406;24.454;2022-12-20T01:59:03;80955.00;;;-144.09;100.00
8890;BME280;4481;43.406;24.454;2022-12-20T02:01:29;80946.63;;;-144.09;100.00
8890;BME280;4481;43.406;24.454;2022-12-20T02:03:55;80950.81;;;-144.09;100.00
8890;BME280;4481;43.406;24.454;2022-12-20T02:06:24;80959.19;;;-144.09;100.00
8890;BME280;4481;43.406;24.454;2022-12-20T02:08:52;80925.72;;;-144.09;100.00
8890;BME280;4481;43.406;24.454;2022-12-20T02:11:43;80950.81;;;-144.09;100.00
8890;BME280;4481;43.406;24.454;2022-12-20T02:14:22;80946.63;;;-144.09;100.00
8890;BME280;4481;43.406;24.454;2022-12-20T02:16:56;80944.53;;;-144.09;100.00
8890;BME280;4481;43.406;24.454;2022-12-20T02:22:27;80944.53;;;-144.09;100.00
8890;BME280;4481;43.406;24.454;2022-12-20T02:25:15;80942.44;;;-144.09;100.00
8890;BME280;4481;43.406;24.454;2022-12-20T02:27:59;80902.69;;;-144.09;100.00
8890;BME280;4481;43.406;24.454;2022-12-20T02:30:31;80892.25;;;-144.09;100.00
8890;BME280;4481;43.406;24.454;2022-12-20T02:33:02;80883.88;;;-144.09;100.00
8890;BME280;4481;43.406;24.454;2022-12-20T02:35:31;80867.13;;;-144.09;100.00
8890;BME280;4481;43.406;24.454;2022-12-20T02:38:00;80865.03;;;-144.09;100.00
8890;BME280;4481;43.406;24.454;2022-12-20T02:40:28;80848.31;;;-144.09;100.00
8890;BME280;4481;43.406;24.454;2022-12-20T02:42:58;80867.13;;;-144.09;100.00
8890;BME280;4481;43.406;24.454;2022-12-20T02:45:29;80865.03;;;-144.09;100.00
8890;BME280;4481;43.406;24.454;2022-12-20T02:48:02;80879.69;;;-144.09;100.00
8890;BME280;4481;43.406;24.454;2022-12-20T02:50:31;80906.88;;;-144.09;100.00
8890;BME280;4481;43.406;24.454;2022-12-20T02:53:00;80938.25;;;-144.09;100.00
8890;BME280;4481;43.406;24.454;2022-12-20T02:55:33;80925.72;;;-144.09;100.00
8890;BME280;4481;43.406;24.454;2022-12-20T02:58:05;80904.78;;;-144.09;100.00
8890;BME280;4481;43.406;24.454;2022-12-20T03:00:38;80932.00;;;-144.09;100.00
8890;BME280;4481;43.406;24.454;2022-12-20T03:03:05;80929.91;;;-144.09;100.00
8890;BME280;4481;43.406;24.454;2022-12-20T03:05:51;80934.06;;;-144.09;100.00
8890;BME280;4481;43.406;24.454;2022-12-20T03:08:18;80929.91;;;-144.09;100.00
8890;BME280;4481;43.406;24.454;2022-12-20T03:10:46;80923.63;;;-144.09;100.00
8890;BME280;4481;43.406;24.454;2022-12-20T03:13:12;80894.34;;;-144.09;100.00
8890;BME280;4481;43.406;24.454;2022-12-20T03:15:39;80871.31;;;-144.09;100.00
8890;BME280;4481;43.406;24.454;2022-12-20T03:18:05;80888.06;;;-144.09;100.00
8890;BME280;4481;43.406;24.454;2022-12-20T03:20:31;80904.78;;;-144.09;100.00
8890;BME280;4481;43.406;24.454;2022-12-20T03:22:58;80888.06;;;-144.09;100.00
8890;BME280;4481;43.406;24.454;2022-12-20T03:25:24;80917.34;;;-144.09;100.00
8890;BME280;4481;43.406;24.454;2022-12-20T03:27:50;80900.59;;;-144.09;100.00
8890;BME280;4481;43.406;24.454;2022-12-20T03:30:17;80898.50;;;-144.09;100.00
8890;BME280;4481;43.406;24.454;2022-12-20T03:32:43;80890.16;;;-144.09;100.00
8890;BME280;4481;43.406;24.454;2022-12-20T03:35:10;80900.59;;;-144.09;100.00
8890;BME280;4481;43.406;24.454;2022-12-20T03:37:36;80904.78;;;-144.09;100.00
8890;BME280;4481;43.406;24.454;2022-12-20T03:40:03;80898.50;;;-144.09;100.00
8890;BME280;4481;43.406;24.454;2022-12-20T03:42:29;80898.50;;;-144.09;100.00
8890;BME280;4481;43.406;24.454;2022-12-20T03:44:55;80929.91;;;-144.09;100.00
8890;BME280;4481;43.406;24.454;2022-12-20T03:47:21;80911.06;;;-144.09;100.00
8890;BME280;4481;43.406;24.454;2022-12-20T03:49:48;80915.25;;;-144.09;100.00
8890;BME280;4481;43.406;24.454;2022-12-20T03:52:16;80900.59;;;-144.09;100.00
8890;BME280;4481;43.406;24.454;2022-12-20T03:54:42;80885.97;;;-144.09;100.00
8890;BME280;4481;43.406;24.454;2022-12-20T03:57:08;80904.78;;;-144.09;100.00
8890;BME280;4481;43.406;24.454;2022-12-20T03:59:34;80919.44;;;-144.09;100.00
8890;BME280;4481;43.406;24.454;2022-12-20T04:02:01;80915.25;;;-144.09;100.00
8890;BME280;4481;43.406;24.454;2022-12-20T04:04:27;80932.00;;;-144.09;100.00
8890;BME280;4481;43.406;24.454;2022-12-20T04:06:54;80952.91;;;-144.09;100.00
8890;BME280;4481;43.406;24.454;2022-12-20T04:09:20;80938.25;;;-144.09;100.00
8890;BME280;4481;43.406;24.454;2022-12-20T04:11:46;80946.63;;;-144.09;100.00
8890;BME280;4481;43.406;24.454;2022-12-20T04:14:13;80950.81;;;-144.09;100.00
8890;BME280;4481;43.406;24.454;2022-12-20T04:16:39;80921.53;;;-144.09;100.00
8890;BME280;4481;43.406;24.454;2022-12-20T04:19:05;80959.19;;;-144.09;100.00
8890;BME280;4481;43.406;24.454;2022-12-20T04:21:33;80950.81;;;-144.09;100.00
8890;BME280;4481;43.406;24.454;2022-12-20T04:24:01;80936.16;;;-144.09;100.00
8890;BME280;4481;43.406;24.454;2022-12-20T04:26:27;80942.44;;;-144.09;100.00
8890;BME280;4481;43.406;24.454;2022-12-20T04:28:54;80963.38;;;-144.09;100.00
8890;BME280;4481;43.406;24.454;2022-12-20T04:31:20;80980.09;;;-144.09;100.00
8890;BME280;4481;43.406;24.454;2022-12-20T04:33:46;80959.19;;;-144.09;100.00
8890;BME280;4481;43.406;24.454;2022-12-20T04:36:13;80959.19;;;-144.09;100.00
8890;BME280;4481;43.406;24.454;2022-12-20T04:38:39;80957.09;;;-144.09;100.00
8890;BME280;4481;43.406;24.454;2022-12-20T04:41:07;80942.44;;;-144.09;100.00
8890;BME280;4481;43.406;24.454;2022-12-20T04:43:33;80952.91;;;-144.09;100.00
8890;BME280;4481;43.406;24.454;2022-12-20T04:45:59;80971.75;;;-144.09;100.00
8890;BME280;4481;43.406;24.454;2022-12-20T04:48:26;80971.75;;;-144.09;100.00
8890;BME280;4481;43.406;24.454;2022-12-20T04:50:53;80967.56;;;-144.09;100.00
8890;BME280;4481;43.406;24.454;2022-12-20T04:53:20;80952.91;;;-144.09;100.00
8890;BME280;4481;43.406;24.454;2022-12-20T04:56:08;80957.09;;;-144.09;100.00
8890;BME280;4481;43.406;24.454;2022-12-20T04:58:34;80961.28;;;-144.09;100.00
8890;BME280;4481;43.406;24.454;2022-12-20T05:01:00;80971.75;;;-144.09;100.00
8890;BME280;4481;43.406;24.454;2022-12-20T05:03:26;80969.66;;;-144.09;100.00
8890;BME280;4481;43.406;24.454;2022-12-20T05:05:53;80963.38;;;-144.09;100.00
8890;BME280;4481;43.406;24.454;2022-12-20T05:08:19;80969.66;;;-144.09;100.00
8890;BME280;4481;43.406;24.454;2022-12-20T05:10:46;80961.28;;;-144.09;100.00
8890;BME280;4481;43.406;24.454;2022-12-20T05:13:13;80982.19;;;-144.09;100.00
8890;BME280;4481;43.406;24.454;2022-12-20T05:15:40;81003.13;;;-144.09;100.00
8890;BME280;4481;43.406;24.454;2022-12-20T05:18:06;81019.88;;;-144.09;100.00
8890;BME280;4481;43.406;24.454;2022-12-20T05:20:32;81019.88;;;-144.09;100.00
8890;BME280;4481;43.406;24.454;2022-12-20T05:22:59;81021.97;;;-144.09;100.00
8890;BME280;4481;43.406;24.454;2022-12-20T05:25:45;81021.97;;;-144.09;100.00
8890;BME280;4481;43.406;24.454;2022-12-20T05:28:30;81024.06;;;-144.09;100.00
8890;BME280;4481;43.406;24.454;2022-12-20T05:30:56;81040.78;;;-144.09;100.00
8890;BME280;4481;43.406;24.454;2022-12-20T05:33:22;81042.88;;;-144.09;100.00
8890;BME280;4481;43.406;24.454;2022-12-20T05:35:48;81028.22;;;-144.09;100.00
8890;BME280;4481;43.406;24.454;2022-12-20T05:38:15;80990.56;;;-144.09;100.00
8890;BME280;4481;43.406;24.454;2022-12-20T05:40:41;80982.19;;;-144.09;100.00
8890;BME280;4481;43.406;24.454;2022-12-20T05:43:07;80992.66;;;-144.09;100.00
8890;BME280;4481;43.406;24.454;2022-12-20T05:45:34;80994.75;;;-144.09;100.00
8890;BME280;4481;43.406;24.454;2022-12-20T05:48:00;80996.84;;;-144.09;100.00
8890;BME280;4481;43.406;24.454;2022-12-20T05:50:27;81009.41;;;-144.09;100.00
8890;BME280;4481;43.406;24.454;2022-12-20T05:52:53;80980.09;;;-144.09;100.00
8890;BME280;4481;43.406;24.454;2022-12-20T05:55:19;80946.63;;;-144.09;100.00
8890;BME280;4481;43.406;24.454;2022-12-20T05:57:46;80957.09;;;-144.09;100.00
8890;BME280;4481;43.406;24.454;2022-12-20T06:00:16;80969.66;;;-144.09;100.00
8890;BME280;4481;43.406;24.454;2022-12-20T06:02:43;80961.28;;;-144.09;100.00
8890;BME280;4481;43.406;24.454;2022-12-20T06:05:09;80973.84;;;-144.09;100.00
8890;BME280;4481;43.406;24.454;2022-12-20T06:07:35;80994.75;;;-144.09;100.00
8890;BME280;4481;43.406;24.454;2022-12-20T06:10:01;80965.47;;;-144.09;100.00
8890;BME280;4481;43.406;24.454;2022-12-20T06:12:28;80957.09;;;-144.09;100.00
8890;BME280;4481;43.406;24.454;2022-12-20T06:14:55;80952.91;;;-144.09;100.00
8890;BME280;4481;43.406;24.454;2022-12-20T06:17:21;80929.91;;;-144.09;100.00
8890;BME280;4481;43.406;24.454;2022-12-20T06:19:48;80932.00;;;-144.09;100.00
8890;BME280;4481;43.406;24.454;2022-12-20T06:22:14;80911.06;;;-144.09;100.00
8890;BME280;4481;43.406;24.454;2022-12-20T06:24:40;80892.25;;;-144.09;100.00
8890;BME280;4481;43.406;24.454;2022-12-20T06:27:07;80890.16;;;-144.09;100.00
8890;BME280;4481;43.406;24.454;2022-12-20T06:29:33;80856.66;;;-144.09;100.00
8890;BME280;4481;43.406;24.454;2022-12-20T06:32:00;80839.94;;;-144.09;100.00
8890;BME280;4481;43.406;24.454;2022-12-20T06:34:30;80821.09;;;-144.09;100.00
8890;BME280;4481;43.406;24.454;2022-12-20T06:36:56;80804.38;;;-144.09;100.00
8890;BME280;4481;43.406;24.454;2022-12-20T06:39:23;80789.72;;;-144.09;100.00
8890;BME280;4481;43.406;24.454;2022-12-20T06:41:49;80783.44;;;-144.09;100.00
8890;BME280;4481;43.406;24.454;2022-12-20T06:44:16;80752.06;;;-144.09;100.00
8890;BME280;4481;43.406;24.454;2022-12-20T06:46:42;80724.88;;;-144.09;100.00
8890;BME280;4481;43.406;24.454;2022-12-20T06:49:09;80706.03;;;-144.09;100.00
8890;BME280;4481;43.406;24.454;2022-12-20T06:51:35;80691.38;;;-144.09;100.00
8890;BME280;4481;43.406;24.454;2022-12-20T06:54:02;80699.75;;;-144.09;100.00
8890;BME280;4481;43.406;24.454;2022-12-20T06:56:28;80680.94;;;-144.09;100.00
8890;BME280;4481;43.406;24.454;2022-12-20T06:58:54;80664.19;;;-144.09;100.00
8890;BME280;4481;43.406;24.454;2022-12-20T07:01:20;80645.38;;;-144.09;99.78
8890;BME280;4481;43.406;24.454;2022-12-20T07:03:46;80647.47;;;-144.09;99.97
8890;BME280;4481;43.406;24.454;2022-12-20T07:06:13;80618.16;;;-144.09;99.26
8890;BME280;4481;43.406;24.454;2022-12-20T07:08:39;80603.53;;;-144.09;99.57
8890;BME280;4481;43.406;24.454;2022-12-20T07:11:06;80609.81;;;-144.09;99.43
8890;BME280;4481;43.406;24.454;2022-12-20T07:13:33;80605.63;;;-144.09;99.36
8890;BME280;4481;43.406;24.454;2022-12-20T07:16:00;80584.69;;;-144.09;97.79
8890;BME280;4481;43.406;24.454;2022-12-20T07:18:26;80578.41;;;-144.09;97.51
8890;BME280;4481;43.406;24.454;2022-12-20T07:20:52;80561.69;;;-144.09;97.74
8890;BME280;4481;43.406;24.454;2022-12-20T07:23:20;80532.41;;;-144.09;97.34
8890;BME280;4481;43.406;24.454;2022-12-20T07:25:52;80557.50;;;-144.09;96.42
8890;BME280;4481;43.406;24.454;2022-12-20T07:28:20;80590.97;;;-144.09;96.94
8890;BME280;4481;43.406;24.454;2022-12-20T07:30:47;80637.00;;;-144.09;98.15
8890;BME280;4481;43.406;24.454;2022-12-20T07:33:13;80695.56;;;-144.09;99.57
8890;BME280;4481;43.406;24.454;2022-12-20T07:35:39;80689.31;;;-144.09;99.67
8890;BME280;4481;43.406;24.454;2022-12-20T07:38:06;80653.72;;;-144.09;99.11
8890;BME280;4481;43.406;24.454;2022-12-20T07:40:32;80597.25;;;-144.09;98.07
8890;BME280;4481;43.406;24.454;2022-12-20T07:42:58;80563.78;;;-144.09;97.55
8890;BME280;4481;43.406;24.454;2022-12-20T07:45:25;80565.88;;;-144.09;97.48
8890;BME280;4481;43.406;24.454;2022-12-20T07:47:52;80534.50;;;-144.09;95.83
8890;BME280;4481;43.406;24.454;2022-12-20T07:50:18;80553.31;;;-144.09;96.07
8890;BME280;4481;43.406;24.454;2022-12-20T07:52:45;80544.94;;;-144.09;97.00
8890;BME280;4481;43.406;24.454;2022-12-20T07:55:15;80574.25;;;-144.09;97.98
8890;BME280;4481;43.406;24.454;2022-12-20T07:57:43;80634.91;;;-144.09;98.08
8890;BME280;4481;43.406;24.454;2022-12-20T08:00:14;80595.16;;;-144.09;98.01
8890;BME280;4481;43.406;24.454;2022-12-20T08:02:46;80559.59;;;-144.09;97.62
8890;BME280;4481;43.406;24.454;2022-12-20T08:05:13;80551.22;;;-144.09;97.12
8890;BME280;4481;43.406;24.454;2022-12-20T08:07:41;80689.31;;;-144.09;99.44
8890;BME280;4481;43.406;24.454;2022-12-20T08:10:10;80687.22;;;-144.09;100.00
8890;BME280;4481;43.406;24.454;2022-12-20T08:12:38;80674.66;;;-144.09;100.00
8890;BME280;4481;43.406;24.454;2022-12-20T08:15:06;80672.56;;;-144.09;100.00
8890;BME280;4481;43.406;24.454;2022-12-20T08:17:32;80699.75;;;-144.09;100.00
8890;BME280;4481;43.406;24.454;2022-12-20T08:19:59;80672.56;;;-144.09;100.00
8890;BME280;4481;43.406;24.454;2022-12-20T08:22:25;80632.81;;;-144.09;100.00
8890;BME280;4481;43.406;24.454;2022-12-20T08:24:52;80622.34;;;-144.09;100.00
8890;BME280;4481;43.406;24.454;2022-12-20T08:27:18;80611.91;;;-144.09;99.97
8890;BME280;4481;43.406;24.454;2022-12-20T08:29:44;80559.59;;;-144.09;99.41
8890;BME280;4481;43.406;24.454;2022-12-20T08:32:10;80505.19;;;-144.09;97.17
8890;BME280;4481;43.406;24.454;2022-12-20T08:34:38;80482.19;;;-144.09;96.89
8890;BME280;4481;43.406;24.454;2022-12-20T08:37:05;80484.28;;;-144.09;96.47
8890;BME280;4481;43.406;24.454;2022-12-20T08:39:33;80461.28;;;-144.09;96.17
8890;BME280;4481;43.406;24.454;2022-12-20T08:41:59;80536.59;;;-144.09;96.91
8890;BME280;4481;43.406;24.454;2022-12-20T08:44:25;80513.56;;;-144.09;97.60
8890;BME280;4481;43.406;24.454;2022-12-20T08:46:51;80480.09;;;-144.09;96.34
8890;BME280;4481;43.406;24.454;2022-12-20T08:49:18;80490.56;;;-144.09;95.68
8890;BME280;4481;43.406;24.454;2022-12-20T08:51:44;80471.72;;;-144.09;95.94
8890;BME280;4481;43.406;24.454;2022-12-20T08:54:11;80484.28;;;-144.09;95.89
8890;BME280;4481;43.406;24.454;2022-12-20T08:56:37;80553.31;;;-144.09;98.15
8890;BME280;4481;43.406;24.454;2022-12-20T08:59:04;80593.06;;;-144.09;99.59
8890;BME280;4481;43.406;24.454;2022-12-20T09:01:30;80542.84;;;-144.09;98.23
8890;BME280;4481;43.406;24.454;2022-12-20T09:03:58;80501.03;;;-144.09;97.77
8890;BME280;4481;43.406;24.454;2022-12-20T09:06:24;80563.78;;;-144.09;98.40
8890;BME280;4481;43.406;24.454;2022-12-20T09:08:51;80498.94;;;-144.09;97.98
8890;BME280;4481;43.406;24.454;2022-12-20T09:11:20;80496.84;;;-144.09;97.45
8890;BME280;4481;43.406;24.454;2022-12-20T09:13:48;80509.38;;;-144.09;97.22
8890;BME280;4481;43.406;24.454;2022-12-20T09:16:20;80515.66;;;-144.09;98.07
8890;BME280;4481;43.406;24.454;2022-12-20T09:18:47;80463.38;;;-144.09;97.58
8890;BME280;4481;43.406;24.454;2022-12-20T09:21:14;80413.16;;;-144.09;97.13
8890;BME280;4481;43.406;24.454;2022-12-20T09:23:44;80354.59;;;-144.09;95.43
8890;BME280;4481;43.406;24.454;2022-12-20T09:26:12;80390.16;;;-144.09;94.99
8890;BME280;4481;43.406;24.454;2022-12-20T09:28:41;80396.41;;;-144.09;94.76
8890;BME280;4481;43.406;24.454;2022-12-20T09:31:11;80419.44;;;-144.09;96.38
8890;BME280;4481;43.406;24.454;2022-12-20T09:33:38;80467.53;;;-144.09;96.60
8890;BME280;4481;43.406;24.454;2022-12-20T09:36:05;80436.16;;;-144.09;96.50
8890;BME280;4481;43.406;24.454;2022-12-20T09:38:34;80371.31;;;-144.09;95.77
8890;BME280;4481;43.406;24.454;2022-12-20T09:41:03;80344.13;;;-144.09;94.79
8890;BME280;4481;43.406;24.454;2022-12-20T09:43:31;80377.59;;;-144.09;95.03
8890;BME280;4481;43.406;24.454;2022-12-20T09:46:00;80415.25;;;-144.09;96.58
8890;BME280;4481;43.406;24.454;2022-12-20T09:48:30;80388.06;;;-144.09;96.17
8890;BME280;4481;43.406;24.454;2022-12-20T09:51:06;80362.94;;;-144.09;95.78
8890;BME280;4481;43.406;24.454;2022-12-20T09:53:41;80323.22;;;-144.09;95.21
8890;BME280;4481;43.406;24.454;2022-12-20T09:56:14;80331.56;;;-144.09;95.30
8890;BME280;4481;43.406;24.454;2022-12-20T09:58:56;80281.38;;;-144.09;94.56
8890;BME280;4481;43.406;24.454;2022-12-20T10:01:25;80260.44;;;-144.09;93.72
8890;BME280;4481;43.406;24.454;2022-12-20T10:03:53;80300.19;;;-144.09;94.68
8890;BME280;4481;43.406;24.454;2022-12-20T10:06:31;80350.41;;;-144.09;95.14
8890;BME280;4481;43.406;24.454;2022-12-20T10:09:04;80406.88;;;-144.09;96.93
8890;BME280;4481;43.406;24.454;2022-12-20T10:11:48;80352.50;;;-144.09;96.09
8890;BME280;4481;43.406;24.454;2022-12-20T10:14:34;80335.75;;;-144.09;95.66
8890;BME280;4481;43.406;24.454;2022-12-20T10:17:11;80300.19;;;-144.09;95.35
8890;BME280;4481;43.406;24.454;2022-12-20T10:19:57;80339.94;;;-144.09;95.35
8890;BME280;4481;43.406;24.454;2022-12-20T10:22:29;80377.59;;;-144.09;96.09
8890;BME280;4481;43.406;24.454;2022-12-20T10:25:10;80434.06;;;-144.09;97.78
8890;BME280;4481;43.406;24.454;2022-12-20T10:27:40;80471.72;;;-144.09;99.29
8890;BME280;4481;43.406;24.454;2022-12-20T10:30:12;80482.19;;;-144.09;100.00
8890;BME280;4481;43.406;24.454;2022-12-20T10:32:39;80419.44;;;-144.09;99.34
8890;BME280;4481;43.406;24.454;2022-12-20T10:35:23;80356.69;;;-144.09;97.23
8890;BME280;4481;43.406;24.454;2022-12-20T10:37:58;80319.03;;;-144.09;96.12
8890;BME280;4481;43.406;24.454;2022-12-20T10:40:26;80337.84;;;-144.09;96.59
8890;BME280;4481;43.406;24.454;2022-12-20T10:42:53;80291.84;;;-144.09;95.87
8890;BME280;4481;43.406;24.454;2022-12-20T10:45:27;80258.34;;;-144.09;94.34
8890;BME280;4481;43.406;24.454;2022-12-20T10:47:59;80264.63;;;-144.09;94.34
8890;BME280;4481;43.406;24.454;2022-12-20T10:50:26;80210.25;;;-144.09;93.73
8890;BME280;4481;43.406;24.454;2022-12-20T10:53:17;80180.97;;;-144.09;92.76
8890;BME280;4481;43.406;24.454;2022-12-20T10:55:44;80164.22;;;-144.09;92.73
8890;BME280;4481;43.406;24.454;2022-12-20T10:58:14;80139.13;;;-144.09;91.58
8890;BME280;4481;43.406;24.454;2022-12-20T11:00:41;80128.66;;;-144.09;91.73
8890;BME280;4481;43.406;24.454;2022-12-20T11:03:15;80118.22;;;-144.09;91.98
8890;BME280;4481;43.406;24.454;2022-12-20T11:05:53;80074.28;;;-144.09;90.12
8890;BME280;4481;43.406;24.454;2022-12-20T11:08:20;80072.19;;;-144.09;90.41
8890;BME280;4481;43.406;24.454;2022-12-20T11:10:46;80086.84;;;-144.09;90.20
8890;BME280;4481;43.406;24.454;2022-12-20T11:13:23;80210.25;;;-144.09;91.54
8890;BME280;4481;43.406;24.454;2022-12-20T11:15:52;80170.50;;;-144.09;91.86
8890;BME280;4481;43.406;24.454;2022-12-20T11:18:28;80124.47;;;-144.09;91.52
8890;BME280;4481;43.406;24.454;2022-12-20T11:21:11;80254.19;;;-144.09;93.93
8890;BME280;4481;43.406;24.454;2022-12-20T11:23:43;80358.78;;;-144.09;96.40
8890;BME280;4481;43.406;24.454;2022-12-20T11:26:22;80348.31;;;-144.09;97.10
8890;BME280;4481;43.406;24.454;2022-12-20T11:29:01;80256.25;;;-144.09;96.17
8890;BME280;4481;43.406;24.454;2022-12-20T11:31:40;80187.25;;;-144.09;94.75
8890;BME280;4481;43.406;24.454;2022-12-20T11:34:22;80143.31;;;-144.09;92.58
8890;BME280;4481;43.406;24.454;2022-12-20T11:37:08;80147.50;;;-144.09;92.83
8890;BME280;4481;43.406;24.454;2022-12-20T11:39:49;80128.66;;;-144.09;92.70
8890;BME280;4481;43.406;24.454;2022-12-20T11:42:23;80103.56;;;-144.09;91.02
8890;BME280;4481;43.406;24.454;2022-12-20T11:44:58;80109.84;;;-144.09;91.76
8890;BME280;4481;43.406;24.454;2022-12-20T11:47:45;80105.66;;;-144.09;90.91
8890;BME280;4481;43.406;24.454;2022-12-20T11:50:35;80088.94;;;-144.09;91.14
8890;BME280;4481;43.406;24.454;2022-12-20T11:53:09;80126.56;;;-144.09;91.11
8890;BME280;4481;43.406;24.454;2022-12-20T11:55:40;80193.50;;;-144.09;92.19
8890;BME280;4481;43.406;24.454;2022-12-20T11:58:14;80185.16;;;-144.09;92.60
8890;BME280;4481;43.406;24.454;2022-12-20T12:00:45;80157.94;;;-144.09;92.21
8890;BME280;4481;43.406;24.454;2022-12-20T12:03:18;80137.03;;;-144.09;91.86
8890;BME280;4481;43.406;24.454;2022-12-20T12:05:51;80107.75;;;-144.09;92.09
8890;BME280;4481;43.406;24.454;2022-12-20T12:08:22;80080.56;;;-144.09;91.74
8890;BME280;4481;43.406;24.454;2022-12-20T12:10:55;80063.81;;;-144.09;91.62
8890;BME280;4481;43.406;24.454;2022-12-20T12:13:25;80082.66;;;-144.09;92.67
8890;BME280;4481;43.406;24.454;2022-12-20T12:15:56;80034.53;;;-144.09;91.74
8890;BME280;4481;43.406;24.454;2022-12-20T12:18:26;80017.81;;;-144.09;91.24
8890;BME280;4481;43.406;24.454;2022-12-20T12:20:59;80003.16;;;-144.09;90.61
8890;BME280;4481;43.406;24.454;2022-12-20T12:23:32;79971.78;;;-144.09;89.89
8890;BME280;4481;43.406;24.454;2022-12-20T12:26:04;79963.44;;;-144.09;89.92
8890;BME280;4481;43.406;24.454;2022-12-20T12:28:34;79990.63;;;-144.09;89.43
8890;BME280;4481;43.406;24.454;2022-12-20T12:31:04;80040.81;;;-144.09;89.79
8890;BME280;4481;43.406;24.454;2022-12-20T12:33:36;80088.94;;;-144.09;91.26
8890;BME280;4481;43.406;24.454;2022-12-20T12:36:17;80097.28;;;-144.09;92.45
8890;BME280;4481;43.406;24.454;2022-12-20T12:42:08;80091.03;;;-144.09;92.30
8890;BME280;4481;43.406;24.454;2022-12-20T12:44:47;80111.94;;;-144.09;92.56
8890;BME280;4481;43.406;24.454;2022-12-20T12:47:19;80145.41;;;-144.09;93.34
8890;BME280;4481;43.406;24.454;2022-12-20T12:49:48;80114.03;;;-144.09;93.14
8890;BME280;4481;43.406;24.454;2022-12-20T12:52:43;80065.91;;;-144.09;92.02
8890;BME280;4481;43.406;24.454;2022-12-20T12:55:34;80097.28;;;-144.09;92.93
8890;BME280;4481;43.406;24.454;2022-12-20T12:58:12;80134.94;;;-144.09;94.05
8890;BME280;4481;43.406;24.454;2022-12-20T13:00:50;80084.75;;;-144.09;93.73
8890;BME280;4481;43.406;24.454;2022-12-20T13:03:44;80080.56;;;-144.09;92.75